sensor_id;sensor_type;location;lat;lon;timestamp;pressure;altitude;pressure_sealevel;temperature;humidity
32298;BME280;18782;48.984;8.548;2023-07-13T00:00:55;99930.88;;;19.54;73.32
32298;BME280;18782;48.984;8.548;2023-07-13T00:03:23;99941.50;;;19.36;73.01
32298;BME280;18782;48.984;8.548;2023-07-13T00:05:57;99946.03;;;19.22;72.98
32298;BME280;18782;48.984;8.548;2023-07-13T00:08:25;99941.56;;;19.33;74.97
32298;BME280;18782;48.984;8.548;2023-07-13T00:10:53;99940.66;;;19.36;73.39
32298;BME280;18782;48.984;8.548;2023-07-13T00:13:22;99933.69;;;19.35;73.38
32298;BME280;18782;48.984;8.548;2023-07-13T00:15:50;99939.84;;;19.32;74.06
32298;BME280;18782;48.984;8.548;2023-07-13T00:18:18;99936.47;;;19.22;73.42
32298;BME280;18782;48.984;8.548;2023-07-13T00:20:45;99930.53;;;19.08;74.42
32298;BME280;18782;48.984;8.548;2023-07-13T00:23:13;99934.94;;;19.01;74.46
32298;BME280;18782;48.984;8.548;2023-07-13T00:25:40;99936.66;;;19.06;75.57
32298;BME280;18782;48.984;8.548;2023-07-13T00:28:08;99943.59;;;19.07;74.91
32298;BME280;18782;48.984;8.548;2023-07-13T00:30:37;99940.31;;;18.86;73.90
32298;BME280;18782;48.984;8.548;2023-07-13T00:33:05;99936.00;;;18.79;74.26
32298;BME280;18782;48.984;8.548;2023-07-13T00:35:43;99937.81;;;18.72;73.92
32298;BME280;18782;48.984;8.548;2023-07-13T00:38:11;99935.25;;;18.65;74.56
32298;BME280;18782;48.984;8.548;2023-07-13T00:40:39;99937.84;;;18.63;75.18
32298;BME280;18782;48.984;8.548;2023-07-13T00:43:11;99920.53;;;18.59;74.85
32298;BME280;18782;48.984;8.548;2023-07-13T00:46:19;99931.88;;;18.50;75.88
32298;BME280;18782;48.984;8.548;2023-07-13T00:48:48;99936.94;;;18.75;76.69
32298;BME280;18782;48.984;8.548;2023-07-13T00:51:21;99939.44;;;18.86;75.42
32298;BME280;18782;48.984;8.548;2023-07-13T00:53:53;99932.34;;;18.98;75.10
32298;BME280;18782;48.984;8.548;2023-07-13T00:56:22;99933.25;;;18.96;73.90
32298;BME280;18782;48.984;8.548;2023-07-13T00:58:52;99928.00;;;19.00;74.81
32298;BME280;18782;48.984;8.548;2023-07-13T01:01:21;99934.03;;;19.06;73.73
32298;BME280;18782;48.984;8.548;2023-07-13T01:03:49;99930.66;;;18.93;74.61
32298;BME280;18782;48.984;8.548;2023-07-13T01:06:18;99936.81;;;18.84;75.04
32298;BME280;18782;48.984;8.548;2023-07-13T01:08:46;99922.81;;;18.94;75.02
32298;BME280;18782;48.984;8.548;2023-07-13T01:11:18;99926.28;;;18.96;75.44
32298;BME280;18782;48.984;8.548;2023-07-13T01:13:46;99923.66;;;18.98;74.93
32298;BME280;18782;48.984;8.548;2023-07-13T01:16:19;99922.81;;;18.97;74.71
32298;BME280;18782;48.984;8.548;2023-07-13T01:18:51;99923.72;;;18.93;74.49
32298;BME280;18782;48.984;8.548;2023-07-13T01:21:20;99928.28;;;18.70;75.18
32298;BME280;18782;48.984;8.548;2023-07-13T01:23:48;99922.31;;;18.52;75.80
32298;BME280;18782;48.984;8.548;2023-07-13T01:26:15;99923.28;;;18.39;76.99
32298;BME280;18782;48.984;8.548;2023-07-13T01:28:43;99925.91;;;18.38;77.78
32298;BME280;18782;48.984;8.548;2023-07-13T01:31:11;99922.47;;;18.34;77.23
32298;BME280;18782;48.984;8.548;2023-07-13T01:33:40;99926.94;;;18.14;77.89
32298;BME280;18782;48.984;8.548;2023-07-13T01:36:09;99922.66;;;18.07;77.54
32298;BME280;18782;48.984;8.548;2023-07-13T01:38:39;99923.59;;;17.90;78.77
32298;BME280;18782;48.984;8.548;2023-07-13T01:41:10;99930.56;;;17.93;78.95
32298;BME280;18782;48.984;8.548;2023-07-13T01:43:38;99927.09;;;17.92;78.89
32298;BME280;18782;48.984;8.548;2023-07-13T01:46:06;99930.47;;;18.07;78.45
32298;BME280;18782;48.984;8.548;2023-07-13T01:48:49;99919.00;;;18.34;76.80
32298;BME280;18782;48.984;8.548;2023-07-13T01:51:18;99926.91;;;18.18;76.28
32298;BME280;18782;48.984;8.548;2023-07-13T01:53:47;99940.06;;;17.95;76.61
32298;BME280;18782;48.984;8.548;2023-07-13T01:56:15;99931.50;;;17.73;77.83
32298;BME280;18782;48.984;8.548;2023-07-13T01:58:44;99942.78;;;17.77;79.46
32298;BME280;18782;48.984;8.548;2023-07-13T02:01:12;99930.56;;;17.91;79.36
32298;BME280;18782;48.984;8.548;2023-07-13T02:03:40;99936.59;;;17.98;77.95
32298;BME280;18782;48.984;8.548;2023-07-13T02:06:07;99927.94;;;17.97;77.86
32298;BME280;18782;48.984;8.548;2023-07-13T02:08:37;99930.53;;;17.97;78.27
32298;BME280;18782;48.984;8.548;2023-07-13T02:11:06;99932.28;;;17.89;77.78
32298;BME280;18782;48.984;8.548;2023-07-13T02:13:33;99929.75;;;17.82;76.73
32298;BME280;18782;48.984;8.548;2023-07-13T02:16:01;99929.72;;;17.85;77.88
32298;BME280;18782;48.984;8.548;2023-07-13T02:18:29;99940.94;;;17.94;77.97
32298;BME280;18782;48.984;8.548;2023-07-13T02:20:57;99939.09;;;18.18;77.98
32298;BME280;18782;48.984;8.548;2023-07-13T02:23:24;99930.34;;;18.28;77.15
32298;BME280;18782;48.984;8.548;2023-07-13T02:25:55;99933.81;;;18.27;76.54
32298;BME280;18782;48.984;8.548;2023-07-13T02:28:24;99932.97;;;18.20;76.63
32298;BME280;18782;48.984;8.548;2023-07-13T02:30:52;99935.59;;;18.22;76.07
32298;BME280;18782;48.984;8.548;2023-07-13T02:33:20;99937.28;;;18.26;75.78
32298;BME280;18782;48.984;8.548;2023-07-13T02:35:47;99937.28;;;18.26;76.06
32298;BME280;18782;48.984;8.548;2023-07-13T02:38:15;99931.16;;;18.33;75.52
32298;BME280;18782;48.984;8.548;2023-07-13T02:40:43;99939.00;;;18.30;75.83
32298;BME280;18782;48.984;8.548;2023-07-13T02:43:11;99939.88;;;18.29;76.31
32298;BME280;18782;48.984;8.548;2023-07-13T02:45:43;99940.81;;;18.22;75.68
32298;BME280;18782;48.984;8.548;2023-07-13T02:48:13;99937.28;;;18.29;75.90
32298;BME280;18782;48.984;8.548;2023-07-13T02:50:41;99934.69;;;18.21;76.26
32298;BME280;18782;48.984;8.548;2023-07-13T02:53:09;99932.91;;;18.31;75.67
32298;BME280;18782;48.984;8.548;2023-07-13T02:55:37;99934.75;;;18.15;75.71
32298;BME280;18782;48.984;8.548;2023-07-13T02:58:04;99939.97;;;18.14;75.95
32298;BME280;18782;48.984;8.548;2023-07-13T03:00:32;99942.66;;;17.98;76.06
32298;BME280;18782;48.984;8.548;2023-07-13T03:03:02;99943.56;;;17.94;77.12
32298;BME280;18782;48.984;8.548;2023-07-13T03:05:30;99941.03;;;17.79;76.68
32298;BME280;18782;48.984;8.548;2023-07-13T03:07:57;99946.28;;;17.64;77.20
32298;BME280;18782;48.984;8.548;2023-07-13T03:10:26;99944.66;;;17.38;78.94
32298;BME280;18782;48.984;8.548;2023-07-13T03:12:54;99946.41;;;17.33;78.93
32298;BME280;18782;48.984;8.548;2023-07-13T03:15:26;99949.00;;;17.39;78.87
32298;BME280;18782;48.984;8.548;2023-07-13T03:17:56;99954.22;;;17.27;79.10
32298;BME280;18782;48.984;8.548;2023-07-13T03:20:26;99960.31;;;17.20;80.11
32298;BME280;18782;48.984;8.548;2023-07-13T03:22:53;99955.97;;;17.16;80.16
32298;BME280;18782;48.984;8.548;2023-07-13T03:25:21;99949.94;;;17.08;79.71
32298;BME280;18782;48.984;8.548;2023-07-13T03:27:49;99953.41;;;16.99;80.60
32298;BME280;18782;48.984;8.548;2023-07-13T03:30:17;99965.56;;;16.89;80.70
32298;BME280;18782;48.984;8.548;2023-07-13T03:32:45;99967.28;;;16.75;80.03
32298;BME280;18782;48.984;8.548;2023-07-13T03:35:12;99975.94;;;16.62;81.65
32298;BME280;18782;48.984;8.548;2023-07-13T03:37:41;99975.94;;;16.56;81.53
32298;BME280;18782;48.984;8.548;2023-07-13T03:40:14;99974.19;;;16.58;81.09
32298;BME280;18782;48.984;8.548;2023-07-13T03:42:44;99981.13;;;16.56;82.99
32298;BME280;18782;48.984;8.548;2023-07-13T03:45:15;99984.59;;;16.64;81.68
32298;BME280;18782;48.984;8.548;2023-07-13T03:47:42;99982.88;;;16.57;81.50
32298;BME280;18782;48.984;8.548;2023-07-13T03:50:10;99984.59;;;16.58;81.97
32298;BME280;18782;48.984;8.548;2023-07-13T03:52:38;99984.59;;;16.58;82.26
32298;BME280;18782;48.984;8.548;2023-07-13T03:55:08;99993.25;;;16.60;82.09
32298;BME280;18782;48.984;8.548;2023-07-13T03:57:36;99994.19;;;16.71;81.65
32298;BME280;18782;48.984;8.548;2023-07-13T04:00:08;99995.88;;;16.74;82.21
32298;BME280;18782;48.984;8.548;2023-07-13T04:02:41;99995.91;;;16.77;81.37
32298;BME280;18782;48.984;8.548;2023-07-13T04:05:09;99999.31;;;16.68;81.53
32298;BME280;18782;48.984;8.548;2023-07-13T04:07:37;100005.44;;;16.73;81.95
32298;BME280;18782;48.984;8.548;2023-07-13T04:10:08;99999.31;;;16.65;82.62
32298;BME280;18782;48.984;8.548;2023-07-13T04:12:35;100005.44;;;16.82;82.72
32298;BME280;18782;48.984;8.548;2023-07-13T04:15:04;99998.50;;;17.03;81.21
32298;BME280;18782;48.984;8.548;2023-07-13T04:17:32;100004.56;;;16.92;80.66
32298;BME280;18782;48.984;8.548;2023-07-13T04:19:59;100000.22;;;16.94;81.98
32298;BME280;18782;48.984;8.548;2023-07-13T04:22:27;99995.00;;;16.96;81.71
32298;BME280;18782;48.984;8.548;2023-07-13T04:24:55;99995.91;;;16.92;80.95
32298;BME280;18782;48.984;8.548;2023-07-13T04:27:23;100001.97;;;16.86;82.59
32298;BME280;18782;48.984;8.548;2023-07-13T04:29:51;100004.53;;;17.00;81.66
32298;BME280;18782;48.984;8.548;2023-07-13T04:32:19;100003.69;;;16.97;81.61
32298;BME280;18782;48.984;8.548;2023-07-13T04:34:47;100002.81;;;16.94;81.45
32298;BME280;18782;48.984;8.548;2023-07-13T04:37:20;100011.50;;;16.98;81.67
32298;BME280;18782;48.984;8.548;2023-07-13T04:39:47;100013.22;;;17.02;81.20
32298;BME280;18782;48.984;8.548;2023-07-13T04:42:15;100008.88;;;17.09;82.33
32298;BME280;18782;48.984;8.548;2023-07-13T04:44:48;100010.59;;;17.16;81.17
32298;BME280;18782;48.984;8.548;2023-07-13T04:47:16;100015.81;;;17.19;81.10
32298;BME280;18782;48.984;8.548;2023-07-13T04:49:44;100021.00;;;17.28;80.57
32298;BME280;18782;48.984;8.548;2023-07-13T04:52:12;100022.69;;;17.37;80.83
32298;BME280;18782;48.984;8.548;2023-07-13T04:54:39;100027.88;;;17.47;79.53
32298;BME280;18782;48.984;8.548;2023-07-13T04:57:07;100026.13;;;17.56;80.33
32298;BME280;18782;48.984;8.548;2023-07-13T04:59:35;100024.38;;;17.64;79.48
32298;BME280;18782;48.984;8.548;2023-07-13T05:02:04;100033.03;;;17.86;79.38
32298;BME280;18782;48.984;8.548;2023-07-13T05:04:32;100025.16;;;17.96;78.59
32298;BME280;18782;48.984;8.548;2023-07-13T05:07:00;100033.81;;;18.02;78.37
32298;BME280;18782;48.984;8.548;2023-07-13T05:09:28;100030.34;;;18.03;78.08
32298;BME280;18782;48.984;8.548;2023-07-13T05:11:55;100031.13;;;18.20;77.51
32298;BME280;18782;48.984;8.548;2023-07-13T05:14:23;100034.53;;;18.31;76.78
32298;BME280;18782;48.984;8.548;2023-07-13T05:16:50;100034.53;;;18.31;76.26
32298;BME280;18782;48.984;8.548;2023-07-13T05:19:20;100028.44;;;18.31;76.37
32298;BME280;18782;48.984;8.548;2023-07-13T05:21:47;100029.34;;;18.28;76.85
32298;BME280;18782;48.984;8.548;2023-07-13T05:24:15;100039.69;;;18.37;76.38
32298;BME280;18782;48.984;8.548;2023-07-13T05:26:51;100034.44;;;18.49;76.14
32298;BME280;18782;48.984;8.548;2023-07-13T05:29:19;100035.25;;;18.53;75.70
32298;BME280;18782;48.984;8.548;2023-07-13T05:31:47;100029.25;;;18.45;75.80
32298;BME280;18782;48.984;8.548;2023-07-13T05:34:15;100038.81;;;18.44;76.06
32298;BME280;18782;48.984;8.548;2023-07-13T05:36:45;100037.06;;;18.45;76.47
32298;BME280;18782;48.984;8.548;2023-07-13T05:39:12;100035.25;;;18.55;75.92
32298;BME280;18782;48.984;8.548;2023-07-13T05:41:40;100037.00;;;18.56;75.64
32298;BME280;18782;48.984;8.548;2023-07-13T05:44:08;100044.75;;;18.65;75.84
32298;BME280;18782;48.984;8.548;2023-07-13T05:46:36;100044.69;;;18.74;75.65
32298;BME280;18782;48.984;8.548;2023-07-13T05:49:03;100043.84;;;18.72;75.84
32298;BME280;18782;48.984;8.548;2023-07-13T05:51:31;100051.63;;;18.81;75.35
32298;BME280;18782;48.984;8.548;2023-07-13T05:54:00;100055.91;;;18.91;75.30
32298;BME280;18782;48.984;8.548;2023-07-13T05:56:28;100066.28;;;18.97;74.97
32298;BME280;18782;48.984;8.548;2023-07-13T05:58:56;100065.38;;;19.01;75.04
32298;BME280;18782;48.984;8.548;2023-07-13T06:01:24;100070.53;;;19.11;74.64
32298;BME280;18782;48.984;8.548;2023-07-13T06:03:51;100075.69;;;19.15;74.29
32298;BME280;18782;48.984;8.548;2023-07-13T06:06:19;100063.47;;;19.22;73.80
32298;BME280;18782;48.984;8.548;2023-07-13T06:08:47;100069.50;;;19.25;74.30
32298;BME280;18782;48.984;8.548;2023-07-13T06:11:18;100065.13;;;19.32;73.93
32298;BME280;18782;48.984;8.548;2023-07-13T06:13:47;100069.47;;;19.30;73.69
32298;BME280;18782;48.984;8.548;2023-07-13T06:32:04;100089.28;;;19.52;71.07
32298;BME280;18782;48.984;8.548;2023-07-13T06:34:32;100094.44;;;19.62;72.78
32298;BME280;18782;48.984;8.548;2023-07-13T06:37:00;100092.63;;;19.70;72.38
32298;BME280;18782;48.984;8.548;2023-07-13T06:39:27;100096.91;;;19.75;71.96
32298;BME280;18782;48.984;8.548;2023-07-13T06:41:55;100095.13;;;19.77;70.57
32298;BME280;18782;48.984;8.548;2023-07-13T06:44:23;100099.41;;;19.86;71.53
32298;BME280;18782;48.984;8.548;2023-07-13T06:46:50;100101.00;;;19.99;71.54
32298;BME280;18782;48.984;8.548;2023-07-13T06:49:20;100102.56;;;20.13;71.48
32298;BME280;18782;48.984;8.548;2023-07-13T06:51:47;100103.38;;;20.18;71.17
32298;BME280;18782;48.984;8.548;2023-07-13T06:54:15;100105.03;;;20.26;70.24
32298;BME280;18782;48.984;8.548;2023-07-13T06:56:43;100109.34;;;20.29;68.70
32298;BME280;18782;48.984;8.548;2023-07-13T06:59:11;100107.50;;;20.37;68.63
32298;BME280;18782;48.984;8.548;2023-07-13T07:01:38;100103.06;;;20.47;69.24
32298;BME280;18782;48.984;8.548;2023-07-13T07:04:07;100109.00;;;20.56;65.88
32298;BME280;18782;48.984;8.548;2023-07-13T07:06:36;100109.66;;;20.74;66.93
32298;BME280;18782;48.984;8.548;2023-07-13T07:09:04;100107.78;;;20.82;65.05
32298;BME280;18782;48.984;8.548;2023-07-13T07:11:32;100115.72;;;20.76;57.26
32298;BME280;18782;48.984;8.548;2023-07-13T07:13:59;100114.19;;;20.63;56.19
32298;BME280;18782;48.984;8.548;2023-07-13T07:16:27;100118.19;;;20.85;57.28
32298;BME280;18782;48.984;8.548;2023-07-13T07:18:55;100108.53;;;20.90;59.06
32298;BME280;18782;48.984;8.548;2023-07-13T07:21:22;100116.19;;;21.04;57.45
32298;BME280;18782;48.984;8.548;2023-07-13T07:23:52;100111.59;;;21.17;58.46
32298;BME280;18782;48.984;8.548;2023-07-13T07:26:19;100121.03;;;21.27;59.03
32298;BME280;18782;48.984;8.548;2023-07-13T07:28:51;100121.06;;;21.24;54.30
32298;BME280;18782;48.984;8.548;2023-07-13T07:31:39;100119.53;;;21.12;54.92
32298;BME280;18782;48.984;8.548;2023-07-13T07:34:09;100120.25;;;21.22;55.33
32298;BME280;18782;48.984;8.548;2023-07-13T07:36:37;100124.56;;;21.26;57.86
32298;BME280;18782;48.984;8.548;2023-07-13T07:39:09;100121.84;;;21.32;54.59
32298;BME280;18782;48.984;8.548;2023-07-13T07:41:36;100128.78;;;21.34;55.22
32298;BME280;18782;48.984;8.548;2023-07-13T07:44:08;100128.94;;;21.24;52.02
32298;BME280;18782;48.984;8.548;2023-07-13T07:46:36;100125.38;;;21.31;54.90
32298;BME280;18782;48.984;8.548;2023-07-13T07:49:04;100130.34;;;21.46;55.28
32298;BME280;18782;48.984;8.548;2023-07-13T07:51:31;100123.44;;;21.42;51.94
32298;BME280;18782;48.984;8.548;2023-07-13T07:53:59;100122.56;;;21.40;51.95
32298;BME280;18782;48.984;8.548;2023-07-13T07:56:28;100125.25;;;21.37;50.91
32298;BME280;18782;48.984;8.548;2023-07-13T07:58:59;100132.06;;;21.47;52.60
32298;BME280;18782;48.984;8.548;2023-07-13T08:01:30;100124.72;;;21.68;52.22
32298;BME280;18782;48.984;8.548;2023-07-13T08:04:00;100130.72;;;21.74;52.78
32298;BME280;18782;48.984;8.548;2023-07-13T08:06:31;100130.00;;;21.65;50.76
32298;BME280;18782;48.984;8.548;2023-07-13T08:09:02;100134.16;;;21.76;46.24
32298;BME280;18782;48.984;8.548;2023-07-13T08:11:32;100128.06;;;21.76;48.33
32298;BME280;18782;48.984;8.548;2023-07-13T08:14:02;100137.56;;;21.81;48.05
32298;BME280;18782;48.984;8.548;2023-07-13T08:16:30;100138.50;;;21.79;47.69
32298;BME280;18782;48.984;8.548;2023-07-13T08:18:59;100138.22;;;21.94;49.11
32298;BME280;18782;48.984;8.548;2023-07-13T08:21:27;100132.09;;;21.94;46.29
32298;BME280;18782;48.984;8.548;2023-07-13T08:23:55;100132.81;;;22.03;47.71
32298;BME280;18782;48.984;8.548;2023-07-13T08:26:23;100118.72;;;22.07;47.88
32298;BME280;18782;48.984;8.548;2023-07-13T08:28:52;100115.94;;;22.17;48.90
32298;BME280;18782;48.984;8.548;2023-07-13T08:31:19;100129.75;;;22.26;48.03
32298;BME280;18782;48.984;8.548;2023-07-13T08:33:47;100131.00;;;22.49;48.91
32298;BME280;18782;48.984;8.548;2023-07-13T08:36:15;100125.53;;;22.59;49.42
32298;BME280;18782;48.984;8.548;2023-07-13T08:38:43;100122.19;;;22.53;47.34
32298;BME280;18782;48.984;8.548;2023-07-13T08:41:12;100126.81;;;22.80;46.13
32298;BME280;18782;48.984;8.548;2023-07-13T08:43:41;100115.75;;;22.67;46.85
32298;BME280;18782;48.984;8.548;2023-07-13T08:46:15;100126.03;;;22.77;45.30
32298;BME280;18782;48.984;8.548;2023-07-13T08:48:46;100127.56;;;22.87;45.62
32298;BME280;18782;48.984;8.548;2023-07-13T08:51:27;100122.38;;;22.84;45.06
32298;BME280;18782;48.984;8.548;2023-07-13T08:53:59;100125.63;;;22.55;44.75
32298;BME280;18782;48.984;8.548;2023-07-13T08:56:29;100123.91;;;22.55;46.15
32298;BME280;18782;48.984;8.548;2023-07-13T08:58:58;100116.56;;;22.70;47.51
32298;BME280;18782;48.984;8.548;2023-07-13T09:01:32;100118.03;;;22.83;46.88
32298;BME280;18782;48.984;8.548;2023-07-13T09:04:05;100127.13;;;23.05;46.68
32298;BME280;18782;48.984;8.548;2023-07-13T09:06:48;100118.00;;;23.22;45.65
32298;BME280;18782;48.984;8.548;2023-07-13T09:09:26;100135.34;;;23.29;44.98
32298;BME280;18782;48.984;8.548;2023-07-13T09:12:08;100132.09;;;23.17;44.18
32298;BME280;18782;48.984;8.548;2023-07-13T09:14:42;100127.00;;;23.11;45.60
32298;BME280;18782;48.984;8.548;2023-07-13T09:17:17;100119.72;;;23.23;45.54
32298;BME280;18782;48.984;8.548;2023-07-13T09:19:49;100126.34;;;23.39;46.50
32298;BME280;18782;48.984;8.548;2023-07-13T09:22:22;100131.06;;;23.25;43.45
32298;BME280;18782;48.984;8.548;2023-07-13T09:24:55;100127.56;;;23.24;43.56
32298;BME280;18782;48.984;8.548;2023-07-13T09:27:30;100133.22;;;23.43;43.57
32298;BME280;18782;48.984;8.548;2023-07-13T09:30:07;100121.63;;;23.52;43.32
32298;BME280;18782;48.984;8.548;2023-07-13T09:32:47;100129.59;;;23.47;42.97
32298;BME280;18782;48.984;8.548;2023-07-13T09:35:25;100127.56;;;23.58;42.70
32298;BME280;18782;48.984;8.548;2023-07-13T09:37:58;100125.25;;;23.82;46.16
32298;BME280;18782;48.984;8.548;2023-07-13T09:40:35;100133.88;;;23.87;41.17
32298;BME280;18782;48.984;8.548;2023-07-13T09:43:05;100130.97;;;23.63;42.07
32298;BME280;18782;48.984;8.548;2023-07-13T09:45:37;100131.16;;;23.54;39.85
32298;BME280;18782;48.984;8.548;2023-07-13T09:48:12;100123.03;;;23.66;41.30
32298;BME280;18782;48.984;8.548;2023-07-13T09:50:41;100126.44;;;23.70;40.63
32298;BME280;18782;48.984;8.548;2023-07-13T09:53:14;100116.38;;;23.86;42.48
32298;BME280;18782;48.984;8.548;2023-07-13T09:55:44;100125.00;;;23.91;41.96
32298;BME280;18782;48.984;8.548;2023-07-13T09:58:14;100124.28;;;24.15;42.00
32298;BME280;18782;48.984;8.548;2023-07-13T10:00:43;100126.97;;;24.14;40.91
32298;BME280;18782;48.984;8.548;2023-07-13T10:03:18;100126.00;;;24.16;40.59
32298;BME280;18782;48.984;8.548;2023-07-13T10:05:49;100127.38;;;24.30;40.45
32298;BME280;18782;48.984;8.548;2023-07-13T10:08:20;100123.84;;;24.31;40.30
32298;BME280;18782;48.984;8.548;2023-07-13T10:10:53;100123.00;;;24.30;40.04
32298;BME280;18782;48.984;8.548;2023-07-13T10:13:33;100135.13;;;24.36;39.41
32298;BME280;18782;48.984;8.548;2023-07-13T10:16:04;100120.84;;;24.13;39.04
32298;BME280;18782;48.984;8.548;2023-07-13T10:18:39;100117.31;;;24.14;39.81
32298;BME280;18782;48.984;8.548;2023-07-13T10:21:13;100118.16;;;24.46;40.27
32298;BME280;18782;48.984;8.548;2023-07-13T10:23:48;100121.25;;;24.60;38.60
32298;BME280;18782;48.984;8.548;2023-07-13T10:26:22;100107.66;;;24.46;38.87
32298;BME280;18782;48.984;8.548;2023-07-13T10:28:54;100101.66;;;24.70;40.61
32298;BME280;18782;48.984;8.548;2023-07-13T10:31:23;100112.44;;;24.61;39.19
32298;BME280;18782;48.984;8.548;2023-07-13T10:33:53;100114.44;;;24.53;38.24
32298;BME280;18782;48.984;8.548;2023-07-13T10:36:29;100124.63;;;24.64;38.92
32298;BME280;18782;48.984;8.548;2023-07-13T10:39:00;100121.34;;;24.57;38.53
32298;BME280;18782;48.984;8.548;2023-07-13T10:41:31;100115.59;;;24.72;38.33
32298;BME280;18782;48.984;8.548;2023-07-13T10:44:00;100122.50;;;24.77;38.59
32298;BME280;18782;48.984;8.548;2023-07-13T10:46:30;100118.81;;;24.82;38.59
32298;BME280;18782;48.984;8.548;2023-07-13T10:49:01;100119.09;;;25.01;37.50
32298;BME280;18782;48.984;8.548;2023-07-13T10:51:31;100126.31;;;24.94;37.09
32298;BME280;18782;48.984;8.548;2023-07-13T10:54:16;100120.16;;;24.95;36.68
32298;BME280;18782;48.984;8.548;2023-07-13T10:56:49;100121.28;;;25.16;36.44
32298;BME280;18782;48.984;8.548;2023-07-13T10:59:19;100109.19;;;25.36;36.21
32298;BME280;18782;48.984;8.548;2023-07-13T11:01:58;100104.63;;;25.41;36.40
32298;BME280;18782;48.984;8.548;2023-07-13T11:04:39;100115.59;;;25.29;35.68
32298;BME280;18782;48.984;8.548;2023-07-13T11:07:11;100108.28;;;25.37;36.80
32298;BME280;18782;48.984;8.548;2023-07-13T11:09:50;100107.00;;;25.73;37.05
32298;BME280;18782;48.984;8.548;2023-07-13T11:15:12;100098.31;;;25.71;36.82
32298;BME280;18782;48.984;8.548;2023-07-13T11:17:53;100094.97;;;25.66;36.32
32298;BME280;18782;48.984;8.548;2023-07-13T11:20:36;100092.00;;;25.50;36.18
32298;BME280;18782;48.984;8.548;2023-07-13T11:23:29;100086.50;;;25.57;36.33
32298;BME280;18782;48.984;8.548;2023-07-13T11:25:58;100090.56;;;25.92;36.47
32298;BME280;18782;48.984;8.548;2023-07-13T11:28:30;100093.44;;;26.09;36.17
32298;BME280;18782;48.984;8.548;2023-07-13T11:31:02;100074.41;;;26.01;34.80
32298;BME280;18782;48.984;8.548;2023-07-13T11:33:51;100090.78;;;26.11;34.48
32298;BME280;18782;48.984;8.548;2023-07-13T11:36:21;100083.59;;;25.91;34.64
32298;BME280;18782;48.984;8.548;2023-07-13T11:38:59;100084.28;;;25.96;34.74
32298;BME280;18782;48.984;8.548;2023-07-13T11:41:30;100085.88;;;26.00;36.03
32298;BME280;18782;48.984;8.548;2023-07-13T11:44:06;100093.13;;;25.68;36.13
32298;BME280;18782;48.984;8.548;2023-07-13T11:46:35;100093.03;;;25.71;35.60
32298;BME280;18782;48.984;8.548;2023-07-13T11:49:04;100081.88;;;25.90;35.59
32298;BME280;18782;48.984;8.548;2023-07-13T11:51:36;100085.66;;;26.06;36.51
32298;BME280;18782;48.984;8.548;2023-07-13T11:54:06;100094.25;;;26.35;34.19
32298;BME280;18782;48.984;8.548;2023-07-13T11:56:36;100083.31;;;26.45;34.41
32298;BME280;18782;48.984;8.548;2023-07-13T11:59:06;100089.66;;;26.85;34.78
32298;BME280;18782;48.984;8.548;2023-07-13T12:01:40;100089.38;;;27.15;34.14
32298;BME280;18782;48.984;8.548;2023-07-13T12:04:20;100088.41;;;27.38;31.77
32298;BME280;18782;48.984;8.548;2023-07-13T12:06:55;100092.53;;;27.23;31.73
32298;BME280;18782;48.984;8.548;2023-07-13T12:09:22;100078.59;;;27.60;31.79
32298;BME280;18782;48.984;8.548;2023-07-13T12:11:52;100072.31;;;28.03;31.50
32298;BME280;18782;48.984;8.548;2023-07-13T12:14:19;100079.03;;;28.11;30.83
32298;BME280;18782;48.984;8.548;2023-07-13T12:16:51;100087.16;;;28.06;31.05
32298;BME280;18782;48.984;8.548;2023-07-13T12:19:22;100080.06;;;27.88;31.72
32298;BME280;18782;48.984;8.548;2023-07-13T12:21:50;100095.47;;;28.17;30.74
32298;BME280;18782;48.984;8.548;2023-07-13T12:24:22;100088.19;;;28.22;30.75
32298;BME280;18782;48.984;8.548;2023-07-13T12:26:51;100090.34;;;28.14;32.16
32298;BME280;18782;48.984;8.548;2023-07-13T12:29:19;100082.03;;;28.22;31.58
32298;BME280;18782;48.984;8.548;2023-07-13T12:31:48;100080.47;;;28.55;31.19
32298;BME280;18782;48.984;8.548;2023-07-13T12:34:20;100083.53;;;28.65;30.14
32298;BME280;18782;48.984;8.548;2023-07-13T12:36:49;100081.22;;;28.76;29.62
32298;BME280;18782;48.984;8.548;2023-07-13T12:39:20;100075.25;;;28.73;29.50
32298;BME280;18782;48.984;8.548;2023-07-13T12:41:52;100090.25;;;29.62;27.97
32298;BME280;18782;48.984;8.548;2023-07-13T12:44:27;100082.56;;;29.38;28.70
32298;BME280;18782;48.984;8.548;2023-07-13T12:46:58;100082.28;;;29.10;29.37
32298;BME280;18782;48.984;8.548;2023-07-13T12:49:29;100080.88;;;29.20;30.20
32298;BME280;18782;48.984;8.548;2023-07-13T12:52:00;100083.25;;;29.61;28.68
32298;BME280;18782;48.984;8.548;2023-07-13T12:54:30;100075.75;;;29.85;28.23
32298;BME280;18782;48.984;8.548;2023-07-13T12:56:59;100080.78;;;30.07;27.74
32298;BME280;18782;48.984;8.548;2023-07-13T12:59:31;100078.63;;;30.47;29.82
32298;BME280;18782;48.984;8.548;2023-07-13T13:02:21;100076.25;;;31.50;27.35
32298;BME280;18782;48.984;8.548;2023-07-13T13:04:50;100077.44;;;31.30;26.37
32298;BME280;18782;48.984;8.548;2023-07-13T13:07:17;100086.84;;;30.58;27.81
32298;BME280;18782;48.984;8.548;2023-07-13T13:09:46;100082.53;;;29.90;28.00
32298;BME280;18782;48.984;8.548;2023-07-13T13:12:16;100083.13;;;29.45;28.49
32298;BME280;18782;48.984;8.548;2023-07-13T13:14:44;100080.78;;;29.74;27.87
32298;BME280;18782;48.984;8.548;2023-07-13T13:17:18;100082.09;;;30.80;26.33
32298;BME280;18782;48.984;8.548;2023-07-13T13:19:46;100075.53;;;32.47;24.49
32298;BME280;18782;48.984;8.548;2023-07-13T13:22:14;100085.06;;;31.20;25.11
32298;BME280;18782;48.984;8.548;2023-07-13T13:24:42;100095.34;;;31.86;24.98
32298;BME280;18782;48.984;8.548;2023-07-13T13:27:17;100084.53;;;33.01;23.89